Startpagina
METAR-TAF:

METAR-TAF

Vliegvelden :

Flughafen Düsseldorf

Düsseldorf, Duitsland

breedte: 51-18N, lengte: 006-46E, hoogte: 45 m

Actueel weer

Dit bericht is 31 minuten geleden gemaakt, om 12:50 UTC
Wind 10 kt uit het noordoosten, variërend tussen het noordnoordoosten en het oosten
Temperatuur 24°C
Vochtigheid 27%
Druk 1023 hPa
Zicht 10 km of meer
geen wolken onder 1500 m en geen cumulonimbus

METAR: EDDL 301250Z 05010KT 020V080 CAVOK 24/04 Q1023 NOSIG

Tijdstip: 15:21 (13:21 UTC)

Verwachting

Dit bericht is 2 uur en het 21 minuten geleden gemaakt, om 11:00 UTC
Verwachting geldig van 30 om 12 UTC tot 31 om 18 UTC
Wind 12 kt uit het oostnoordoosten
Zicht 10 km of meer
geen wolken onder 1500 m en geen cumulonimbus
Wijzigt naar
van 30 om 19 UTC tot 30 om 22 UTC
Wind 5 kt uit het noordoosten
Wijzigt naar
van 31 om 06 UTC tot 31 om 09 UTC
Wind 11 kt uit het noordoosten

TAF: EDDL 301100Z 3012/3118 06012KT CAVOK BECMG 3019/3022 04005KT BECMG 3106/3109 05011KT

Waarnemingen en weersverwachtingen van meer dan 4000 vliegvelden (METAR en TAF).

De beschikbare stations zijn de gele en rode punten op de kaart.

Ga met uw muis naar het station om de naam te zien.

Klik dan om waarnemingen en weersverwachtingen te zien.

kaart wijzigen: klik op de groene knoppen met een zwart kruis om in te zoomen, op de groene knop met een streepje om uit te zoomen of op de groene pijlen voor aangrenzende kaarten.


METAR-TAF: